sensor_id;sensor_type;location;lat;lon;timestamp;P1;durP1;ratioP1;P2;durP2;ratioP2
73597;SDS011;61874;48.146;11.594;2022-08-11T00:02:32;4.80;;;2.00;;
73597;SDS011;61874;48.146;11.594;2022-08-11T00:05:03;5.20;;;2.25;;
73597;SDS011;61874;48.146;11.594;2022-08-11T00:07:31;7.07;;;1.77;;
73597;SDS011;61874;48.146;11.594;2022-08-11T00:09:58;5.22;;;1.85;;
73597;SDS011;61874;48.146;11.594;2022-08-11T00:12:24;4.88;;;3.22;;
73597;SDS011;61874;48.146;11.594;2022-08-11T00:14:55;4.45;;;1.65;;
73597;SDS011;61874;48.146;11.594;2022-08-11T00:17:25;4.45;;;2.47;;
73597;SDS011;61874;48.146;11.594;2022-08-11T00:19:53;4.85;;;1.90;;
73597;SDS011;61874;48.146;11.594;2022-08-11T00:22:35;4.07;;;1.90;;
73597;SDS011;61874;48.146;11.594;2022-08-11T00:25:10;5.45;;;2.00;;
73597;SDS011;61874;48.146;11.594;2022-08-11T00:27:39;5.20;;;2.00;;
73597;SDS011;61874;48.146;11.594;2022-08-11T00:30:05;3.92;;;2.03;;
73597;SDS011;61874;48.146;11.594;2022-08-11T00:32:33;5.07;;;2.45;;
73597;SDS011;61874;48.146;11.594;2022-08-11T00:34:59;8.60;;;2.50;;
73597;SDS011;61874;48.146;11.594;2022-08-11T00:37:26;3.85;;;2.35;;
73597;SDS011;61874;48.146;11.594;2022-08-11T00:39:53;4.07;;;2.58;;
73597;SDS011;61874;48.146;11.594;2022-08-11T00:48:10;3.97;;;2.08;;
73597;SDS011;61874;48.146;11.594;2022-08-11T01:01:58;4.25;;;2.10;;
73597;SDS011;61874;48.146;11.594;2022-08-11T01:41:04;5.75;;;2.20;;
73597;SDS011;61874;48.146;11.594;2022-08-11T01:47:28;5.80;;;2.22;;
73597;SDS011;61874;48.146;11.594;2022-08-11T01:50:23;3.97;;;1.80;;
73597;SDS011;61874;48.146;11.594;2022-08-11T01:55:36;6.68;;;2.10;;
73597;SDS011;61874;48.146;11.594;2022-08-11T02:03:58;3.80;;;2.00;;
73597;SDS011;61874;48.146;11.594;2022-08-11T02:12:51;5.60;;;2.20;;
73597;SDS011;61874;48.146;11.594;2022-08-11T02:15:28;5.75;;;2.30;;
73597;SDS011;61874;48.146;11.594;2022-08-11T02:20:47;6.13;;;2.53;;
73597;SDS011;61874;48.146;11.594;2022-08-11T02:23:51;6.28;;;2.42;;
73597;SDS011;61874;48.146;11.594;2022-08-11T02:31:39;3.50;;;2.20;;
73597;SDS011;61874;48.146;11.594;2022-08-11T02:53:39;8.52;;;3.17;;
73597;SDS011;61874;48.146;11.594;2022-08-11T03:11:25;4.57;;;2.58;;
73597;SDS011;61874;48.146;11.594;2022-08-11T03:17:40;3.67;;;1.90;;
73597;SDS011;61874;48.146;11.594;2022-08-11T03:26:24;4.25;;;2.35;;
73597;SDS011;61874;48.146;11.594;2022-08-11T03:31:52;5.85;;;2.70;;
73597;SDS011;61874;48.146;11.594;2022-08-11T03:34:26;6.90;;;2.35;;
73597;SDS011;61874;48.146;11.594;2022-08-11T03:48:38;5.43;;;2.97;;
73597;SDS011;61874;48.146;11.594;2022-08-11T03:51:06;9.07;;;2.50;;
73597;SDS011;61874;48.146;11.594;2022-08-11T04:11:13;5.50;;;2.85;;
73597;SDS011;61874;48.146;11.594;2022-08-11T04:16:41;4.13;;;2.50;;
73597;SDS011;61874;48.146;11.594;2022-08-11T04:30:29;7.82;;;2.70;;
73597;SDS011;61874;48.146;11.594;2022-08-11T04:33:21;11.57;;;3.25;;
73597;SDS011;61874;48.146;11.594;2022-08-11T04:36:20;10.07;;;2.80;;
73597;SDS011;61874;48.146;11.594;2022-08-11T04:42:13;7.85;;;2.60;;
73597;SDS011;61874;48.146;11.594;2022-08-11T04:57:33;6.85;;;2.30;;
73597;SDS011;61874;48.146;11.594;2022-08-11T05:00:29;4.65;;;2.45;;
73597;SDS011;61874;48.146;11.594;2022-08-11T05:03:34;8.10;;;2.50;;
73597;SDS011;61874;48.146;11.594;2022-08-11T05:09:01;8.07;;;2.97;;
73597;SDS011;61874;48.146;11.594;2022-08-11T05:14:25;5.47;;;2.83;;
73597;SDS011;61874;48.146;11.594;2022-08-11T05:17:23;5.90;;;2.80;;
73597;SDS011;61874;48.146;11.594;2022-08-11T05:20:17;7.10;;;2.88;;
73597;SDS011;61874;48.146;11.594;2022-08-11T05:23:03;8.27;;;3.75;;
73597;SDS011;61874;48.146;11.594;2022-08-11T05:26:03;9.70;;;2.67;;
73597;SDS011;61874;48.146;11.594;2022-08-11T05:28:55;9.73;;;3.10;;
73597;SDS011;61874;48.146;11.594;2022-08-11T05:31:45;6.22;;;3.20;;
73597;SDS011;61874;48.146;11.594;2022-08-11T05:34:45;6.07;;;2.75;;
73597;SDS011;61874;48.146;11.594;2022-08-11T05:40:31;6.72;;;3.30;;
73597;SDS011;61874;48.146;11.594;2022-08-11T05:43:11;4.55;;;2.58;;
73597;SDS011;61874;48.146;11.594;2022-08-11T05:45:57;5.75;;;2.80;;
73597;SDS011;61874;48.146;11.594;2022-08-11T05:48:43;8.18;;;3.55;;
73597;SDS011;61874;48.146;11.594;2022-08-11T05:51:38;7.85;;;2.42;;
73597;SDS011;61874;48.146;11.594;2022-08-11T05:54:27;5.18;;;2.60;;
73597;SDS011;61874;48.146;11.594;2022-08-11T05:57:19;8.52;;;2.50;;
73597;SDS011;61874;48.146;11.594;2022-08-11T05:59:46;6.18;;;2.45;;
73597;SDS011;61874;48.146;11.594;2022-08-11T06:02:13;6.05;;;2.97;;
73597;SDS011;61874;48.146;11.594;2022-08-11T06:04:39;5.70;;;2.78;;
73597;SDS011;61874;48.146;11.594;2022-08-11T06:07:06;5.82;;;2.80;;
73597;SDS011;61874;48.146;11.594;2022-08-11T06:14:42;7.80;;;2.63;;
73597;SDS011;61874;48.146;11.594;2022-08-11T06:17:10;6.45;;;2.60;;
73597;SDS011;61874;48.146;11.594;2022-08-11T06:19:38;4.28;;;2.35;;
73597;SDS011;61874;48.146;11.594;2022-08-11T06:22:06;6.13;;;2.28;;
73597;SDS011;61874;48.146;11.594;2022-08-11T06:24:35;6.82;;;2.67;;
73597;SDS011;61874;48.146;11.594;2022-08-11T06:27:03;7.90;;;2.88;;
73597;SDS011;61874;48.146;11.594;2022-08-11T06:29:31;9.02;;;2.50;;
73597;SDS011;61874;48.146;11.594;2022-08-11T06:32:01;7.43;;;2.80;;
73597;SDS011;61874;48.146;11.594;2022-08-11T06:37:44;7.82;;;2.63;;
73597;SDS011;61874;48.146;11.594;2022-08-11T06:46:10;4.65;;;2.38;;
73597;SDS011;61874;48.146;11.594;2022-08-11T06:48:39;7.18;;;2.35;;
73597;SDS011;61874;48.146;11.594;2022-08-11T06:51:09;6.40;;;3.05;;
73597;SDS011;61874;48.146;11.594;2022-08-11T06:53:41;7.45;;;2.63;;
73597;SDS011;61874;48.146;11.594;2022-08-11T06:56:09;8.48;;;2.58;;
73597;SDS011;61874;48.146;11.594;2022-08-11T06:58:56;5.47;;;2.38;;
73597;SDS011;61874;48.146;11.594;2022-08-11T07:04:43;6.40;;;2.58;;
73597;SDS011;61874;48.146;11.594;2022-08-11T07:10:42;7.47;;;2.70;;
73597;SDS011;61874;48.146;11.594;2022-08-11T07:13:48;5.38;;;2.42;;
73597;SDS011;61874;48.146;11.594;2022-08-11T07:16:38;4.40;;;2.30;;
73597;SDS011;61874;48.146;11.594;2022-08-11T07:19:07;6.78;;;2.38;;
73597;SDS011;61874;48.146;11.594;2022-08-11T07:24:58;5.03;;;2.55;;
73597;SDS011;61874;48.146;11.594;2022-08-11T07:27:46;5.07;;;2.22;;
73597;SDS011;61874;48.146;11.594;2022-08-11T07:30:36;4.88;;;2.40;;
73597;SDS011;61874;48.146;11.594;2022-08-11T07:33:05;6.00;;;2.85;;
73597;SDS011;61874;48.146;11.594;2022-08-11T07:35:50;4.30;;;2.08;;
73597;SDS011;61874;48.146;11.594;2022-08-11T07:38:27;5.88;;;2.50;;
73597;SDS011;61874;48.146;11.594;2022-08-11T07:41:12;4.80;;;2.25;;
73597;SDS011;61874;48.146;11.594;2022-08-11T07:43:39;5.45;;;2.58;;
73597;SDS011;61874;48.146;11.594;2022-08-11T07:46:06;6.05;;;2.05;;
73597;SDS011;61874;48.146;11.594;2022-08-11T07:48:51;4.40;;;2.10;;
73597;SDS011;61874;48.146;11.594;2022-08-11T07:51:36;3.50;;;1.90;;
73597;SDS011;61874;48.146;11.594;2022-08-11T07:54:21;4.47;;;2.28;;
73597;SDS011;61874;48.146;11.594;2022-08-11T07:56:48;5.07;;;2.30;;
73597;SDS011;61874;48.146;11.594;2022-08-11T07:59:14;4.95;;;2.00;;
73597;SDS011;61874;48.146;11.594;2022-08-11T08:02:00;8.10;;;2.20;;
73597;SDS011;61874;48.146;11.594;2022-08-11T08:04:44;6.90;;;2.30;;
73597;SDS011;61874;48.146;11.594;2022-08-11T08:07:30;4.20;;;1.95;;
73597;SDS011;61874;48.146;11.594;2022-08-11T08:10:14;4.90;;;2.15;;
73597;SDS011;61874;48.146;11.594;2022-08-11T08:13:01;7.03;;;2.40;;
73597;SDS011;61874;48.146;11.594;2022-08-11T08:15:46;4.80;;;2.53;;
73597;SDS011;61874;48.146;11.594;2022-08-11T08:18:34;5.68;;;2.30;;
73597;SDS011;61874;48.146;11.594;2022-08-11T08:21:02;5.35;;;1.90;;
73597;SDS011;61874;48.146;11.594;2022-08-11T08:23:39;7.25;;;2.30;;
73597;SDS011;61874;48.146;11.594;2022-08-11T08:26:07;3.97;;;2.33;;
73597;SDS011;61874;48.146;11.594;2022-08-11T08:28:55;5.22;;;2.33;;
73597;SDS011;61874;48.146;11.594;2022-08-11T08:31:43;4.05;;;2.03;;
73597;SDS011;61874;48.146;11.594;2022-08-11T08:34:10;5.22;;;2.30;;
73597;SDS011;61874;48.146;11.594;2022-08-11T08:36:38;6.47;;;2.25;;
73597;SDS011;61874;48.146;11.594;2022-08-11T08:39:06;7.43;;;2.30;;
73597;SDS011;61874;48.146;11.594;2022-08-11T08:41:32;4.65;;;2.50;;
73597;SDS011;61874;48.146;11.594;2022-08-11T08:44:03;5.95;;;2.60;;
73597;SDS011;61874;48.146;11.594;2022-08-11T08:46:36;6.43;;;2.53;;
73597;SDS011;61874;48.146;11.594;2022-08-11T08:49:06;3.95;;;2.30;;
73597;SDS011;61874;48.146;11.594;2022-08-11T08:51:35;4.75;;;2.20;;
73597;SDS011;61874;48.146;11.594;2022-08-11T08:54:06;7.97;;;2.75;;
73597;SDS011;61874;48.146;11.594;2022-08-11T08:56:34;3.33;;;1.90;;
73597;SDS011;61874;48.146;11.594;2022-08-11T08:59:04;5.82;;;2.60;;
73597;SDS011;61874;48.146;11.594;2022-08-11T09:01:32;4.20;;;2.10;;
73597;SDS011;61874;48.146;11.594;2022-08-11T09:04:08;5.18;;;2.20;;
73597;SDS011;61874;48.146;11.594;2022-08-11T09:06:38;4.80;;;2.28;;
73597;SDS011;61874;48.146;11.594;2022-08-11T09:09:05;4.72;;;2.17;;
73597;SDS011;61874;48.146;11.594;2022-08-11T09:11:33;6.95;;;2.40;;
73597;SDS011;61874;48.146;11.594;2022-08-11T09:14:18;4.55;;;2.40;;
73597;SDS011;61874;48.146;11.594;2022-08-11T09:16:46;6.18;;;2.22;;
73597;SDS011;61874;48.146;11.594;2022-08-11T09:19:14;5.95;;;2.20;;
73597;SDS011;61874;48.146;11.594;2022-08-11T09:21:42;4.05;;;2.00;;
73597;SDS011;61874;48.146;11.594;2022-08-11T09:24:30;4.45;;;2.10;;
73597;SDS011;61874;48.146;11.594;2022-08-11T09:27:14;6.70;;;2.13;;
73597;SDS011;61874;48.146;11.594;2022-08-11T09:29:40;4.97;;;1.90;;
73597;SDS011;61874;48.146;11.594;2022-08-11T09:32:05;4.70;;;2.05;;
73597;SDS011;61874;48.146;11.594;2022-08-11T09:34:32;5.88;;;2.08;;
73597;SDS011;61874;48.146;11.594;2022-08-11T09:37:00;3.83;;;1.60;;
73597;SDS011;61874;48.146;11.594;2022-08-11T09:39:46;3.47;;;1.83;;
73597;SDS011;61874;48.146;11.594;2022-08-11T09:42:40;4.43;;;1.80;;
73597;SDS011;61874;48.146;11.594;2022-08-11T09:45:25;5.63;;;2.25;;
73597;SDS011;61874;48.146;11.594;2022-08-11T09:47:51;4.53;;;1.90;;
73597;SDS011;61874;48.146;11.594;2022-08-11T09:50:18;7.00;;;1.92;;
73597;SDS011;61874;48.146;11.594;2022-08-11T09:52:44;5.95;;;1.80;;
73597;SDS011;61874;48.146;11.594;2022-08-11T09:55:13;5.15;;;2.35;;
73597;SDS011;61874;48.146;11.594;2022-08-11T09:57:40;3.40;;;1.83;;
73597;SDS011;61874;48.146;11.594;2022-08-11T10:00:31;3.85;;;1.80;;
73597;SDS011;61874;48.146;11.594;2022-08-11T10:03:11;3.22;;;1.80;;
73597;SDS011;61874;48.146;11.594;2022-08-11T10:05:39;6.00;;;1.80;;
73597;SDS011;61874;48.146;11.594;2022-08-11T10:08:43;6.45;;;2.00;;
73597;SDS011;61874;48.146;11.594;2022-08-11T10:11:14;5.22;;;1.90;;
73597;SDS011;61874;48.146;11.594;2022-08-11T10:13:45;4.63;;;1.65;;
73597;SDS011;61874;48.146;11.594;2022-08-11T10:16:33;6.47;;;2.17;;
73597;SDS011;61874;48.146;11.594;2022-08-11T10:19:01;5.55;;;1.70;;
73597;SDS011;61874;48.146;11.594;2022-08-11T10:21:30;5.28;;;1.90;;
73597;SDS011;61874;48.146;11.594;2022-08-11T10:24:09;4.53;;;1.70;;
73597;SDS011;61874;48.146;11.594;2022-08-11T10:26:55;4.35;;;2.00;;
73597;SDS011;61874;48.146;11.594;2022-08-11T10:29:35;6.53;;;1.90;;
73597;SDS011;61874;48.146;11.594;2022-08-11T10:32:25;4.55;;;1.83;;
73597;SDS011;61874;48.146;11.594;2022-08-11T10:35:11;5.45;;;2.00;;
73597;SDS011;61874;48.146;11.594;2022-08-11T10:37:38;3.95;;;1.90;;
73597;SDS011;61874;48.146;11.594;2022-08-11T10:40:06;4.30;;;1.90;;
73597;SDS011;61874;48.146;11.594;2022-08-11T10:42:35;3.90;;;1.60;;
73597;SDS011;61874;48.146;11.594;2022-08-11T10:45:21;5.10;;;1.90;;
73597;SDS011;61874;48.146;11.594;2022-08-11T10:48:06;4.32;;;1.70;;
73597;SDS011;61874;48.146;11.594;2022-08-11T10:50:32;3.58;;;1.75;;
73597;SDS011;61874;48.146;11.594;2022-08-11T10:53:17;4.47;;;1.80;;
73597;SDS011;61874;48.146;11.594;2022-08-11T10:56:02;5.78;;;1.98;;
73597;SDS011;61874;48.146;11.594;2022-08-11T10:58:47;3.22;;;1.75;;
73597;SDS011;61874;48.146;11.594;2022-08-11T11:01:14;4.07;;;2.13;;
73597;SDS011;61874;48.146;11.594;2022-08-11T11:03:42;6.00;;;1.90;;
73597;SDS011;61874;48.146;11.594;2022-08-11T11:08:50;4.85;;;2.08;;
73597;SDS011;61874;48.146;11.594;2022-08-11T11:11:20;5.30;;;2.25;;
73597;SDS011;61874;48.146;11.594;2022-08-11T11:13:50;5.07;;;1.90;;
73597;SDS011;61874;48.146;11.594;2022-08-11T11:16:35;3.85;;;1.83;;
73597;SDS011;61874;48.146;11.594;2022-08-11T11:19:21;7.93;;;2.00;;
73597;SDS011;61874;48.146;11.594;2022-08-11T11:21:53;8.48;;;2.08;;
73597;SDS011;61874;48.146;11.594;2022-08-11T11:24:53;6.03;;;2.13;;
73597;SDS011;61874;48.146;11.594;2022-08-11T11:27:52;5.18;;;1.70;;
73597;SDS011;61874;48.146;11.594;2022-08-11T11:30:25;7.68;;;1.75;;
73597;SDS011;61874;48.146;11.594;2022-08-11T11:33:07;4.20;;;2.03;;
73597;SDS011;61874;48.146;11.594;2022-08-11T11:38:31;5.60;;;1.70;;
73597;SDS011;61874;48.146;11.594;2022-08-11T11:40:57;4.00;;;1.80;;
73597;SDS011;61874;48.146;11.594;2022-08-11T11:43:43;2.95;;;1.50;;
73597;SDS011;61874;48.146;11.594;2022-08-11T11:46:10;4.43;;;1.80;;
73597;SDS011;61874;48.146;11.594;2022-08-11T11:48:38;3.58;;;2.05;;
73597;SDS011;61874;48.146;11.594;2022-08-11T11:53:31;5.65;;;1.80;;
73597;SDS011;61874;48.146;11.594;2022-08-11T11:55:57;5.40;;;2.03;;
73597;SDS011;61874;48.146;11.594;2022-08-11T11:58:24;3.05;;;1.52;;
73597;SDS011;61874;48.146;11.594;2022-08-11T12:01:10;5.68;;;1.67;;
73597;SDS011;61874;48.146;11.594;2022-08-11T12:03:44;5.38;;;1.85;;
73597;SDS011;61874;48.146;11.594;2022-08-11T12:06:13;5.45;;;1.48;;
73597;SDS011;61874;48.146;11.594;2022-08-11T12:08:39;3.40;;;1.55;;
73597;SDS011;61874;48.146;11.594;2022-08-11T12:11:07;10.77;;;2.72;;
73597;SDS011;61874;48.146;11.594;2022-08-11T12:13:54;4.28;;;1.63;;
73597;SDS011;61874;48.146;11.594;2022-08-11T12:16:22;4.47;;;1.77;;
73597;SDS011;61874;48.146;11.594;2022-08-11T12:18:50;4.32;;;1.52;;
73597;SDS011;61874;48.146;11.594;2022-08-11T12:21:18;4.57;;;1.63;;
73597;SDS011;61874;48.146;11.594;2022-08-11T12:23:44;4.47;;;1.70;;
73597;SDS011;61874;48.146;11.594;2022-08-11T12:26:30;4.30;;;1.50;;
73597;SDS011;61874;48.146;11.594;2022-08-11T12:29:23;4.15;;;1.45;;
73597;SDS011;61874;48.146;11.594;2022-08-11T12:31:51;3.47;;;1.50;;
73597;SDS011;61874;48.146;11.594;2022-08-11T12:34:22;4.22;;;1.63;;
73597;SDS011;61874;48.146;11.594;2022-08-11T12:36:58;3.47;;;1.70;;
73597;SDS011;61874;48.146;11.594;2022-08-11T12:39:28;4.00;;;1.52;;
73597;SDS011;61874;48.146;11.594;2022-08-11T12:42:17;3.75;;;1.45;;
73597;SDS011;61874;48.146;11.594;2022-08-11T12:45:02;4.07;;;1.60;;
73597;SDS011;61874;48.146;11.594;2022-08-11T12:48:15;4.95;;;1.70;;
73597;SDS011;61874;48.146;11.594;2022-08-11T12:51:06;7.55;;;1.65;;
73597;SDS011;61874;48.146;11.594;2022-08-11T12:53:54;3.53;;;1.77;;
73597;SDS011;61874;48.146;11.594;2022-08-11T12:56:24;3.13;;;1.50;;
73597;SDS011;61874;48.146;11.594;2022-08-11T12:59:15;3.67;;;1.70;;
73597;SDS011;61874;48.146;11.594;2022-08-11T13:01:58;5.18;;;1.92;;
73597;SDS011;61874;48.146;11.594;2022-08-11T13:04:43;4.15;;;1.90;;
73597;SDS011;61874;48.146;11.594;2022-08-11T13:07:20;3.40;;;1.50;;
73597;SDS011;61874;48.146;11.594;2022-08-11T13:09:46;3.80;;;1.20;;
73597;SDS011;61874;48.146;11.594;2022-08-11T13:12:13;2.97;;;1.38;;
73597;SDS011;61874;48.146;11.594;2022-08-11T13:14:58;5.30;;;1.55;;
73597;SDS011;61874;48.146;11.594;2022-08-11T13:17:25;3.42;;;1.40;;
73597;SDS011;61874;48.146;11.594;2022-08-11T13:19:53;3.00;;;1.30;;
73597;SDS011;61874;48.146;11.594;2022-08-11T13:22:21;4.80;;;1.48;;
73597;SDS011;61874;48.146;11.594;2022-08-11T13:24:48;4.28;;;1.63;;
73597;SDS011;61874;48.146;11.594;2022-08-11T13:27:16;3.85;;;1.60;;
73597;SDS011;61874;48.146;11.594;2022-08-11T13:29:42;4.00;;;1.48;;
73597;SDS011;61874;48.146;11.594;2022-08-11T13:32:11;5.30;;;1.70;;
73597;SDS011;61874;48.146;11.594;2022-08-11T13:34:39;3.85;;;1.77;;
73597;SDS011;61874;48.146;11.594;2022-08-11T13:37:07;2.65;;;1.23;;
73597;SDS011;61874;48.146;11.594;2022-08-11T13:39:34;4.30;;;1.63;;
73597;SDS011;61874;48.146;11.594;2022-08-11T13:42:01;3.97;;;1.80;;
73597;SDS011;61874;48.146;11.594;2022-08-11T13:44:29;3.15;;;1.23;;
73597;SDS011;61874;48.146;11.594;2022-08-11T13:47:06;6.25;;;1.80;;
73597;SDS011;61874;48.146;11.594;2022-08-11T13:49:36;3.38;;;1.30;;
73597;SDS011;61874;48.146;11.594;2022-08-11T13:52:04;5.13;;;1.75;;
73597;SDS011;61874;48.146;11.594;2022-08-11T13:54:33;6.38;;;2.10;;
73597;SDS011;61874;48.146;11.594;2022-08-11T13:57:03;4.60;;;1.60;;
73597;SDS011;61874;48.146;11.594;2022-08-11T13:59:31;10.10;;;1.70;;
73597;SDS011;61874;48.146;11.594;2022-08-11T14:02:07;3.45;;;1.60;;
73597;SDS011;61874;48.146;11.594;2022-08-11T14:04:44;3.75;;;1.70;;
73597;SDS011;61874;48.146;11.594;2022-08-11T14:07:13;2.58;;;1.38;;
73597;SDS011;61874;48.146;11.594;2022-08-11T14:09:43;4.10;;;1.60;;
73597;SDS011;61874;48.146;11.594;2022-08-11T14:12:18;3.03;;;1.50;;
73597;SDS011;61874;48.146;11.594;2022-08-11T14:15:08;5.82;;;1.95;;
73597;SDS011;61874;48.146;11.594;2022-08-11T14:17:44;4.78;;;1.58;;
73597;SDS011;61874;48.146;11.594;2022-08-11T14:20:16;7.53;;;1.60;;
73597;SDS011;61874;48.146;11.594;2022-08-11T14:22:44;4.50;;;1.50;;
73597;SDS011;61874;48.146;11.594;2022-08-11T14:25:12;3.60;;;1.60;;
73597;SDS011;61874;48.146;11.594;2022-08-11T14:27:40;6.57;;;1.77;;
73597;SDS011;61874;48.146;11.594;2022-08-11T14:32:53;4.80;;;1.48;;
73597;SDS011;61874;48.146;11.594;2022-08-11T14:35:20;3.92;;;1.60;;
73597;SDS011;61874;48.146;11.594;2022-08-11T14:37:45;7.32;;;1.40;;
73597;SDS011;61874;48.146;11.594;2022-08-11T14:40:12;9.13;;;1.90;;
73597;SDS011;61874;48.146;11.594;2022-08-11T14:42:58;4.53;;;1.52;;
73597;SDS011;61874;48.146;11.594;2022-08-11T14:48:27;2.65;;;1.45;;
73597;SDS011;61874;48.146;11.594;2022-08-11T14:50:53;5.78;;;1.58;;
73597;SDS011;61874;48.146;11.594;2022-08-11T14:53:20;3.75;;;1.45;;
73597;SDS011;61874;48.146;11.594;2022-08-11T14:55:47;4.30;;;1.40;;
73597;SDS011;61874;48.146;11.594;2022-08-11T14:58:31;6.65;;;1.52;;
73597;SDS011;61874;48.146;11.594;2022-08-11T15:01:00;3.45;;;1.40;;
73597;SDS011;61874;48.146;11.594;2022-08-11T15:03:28;3.55;;;1.55;;
73597;SDS011;61874;48.146;11.594;2022-08-11T15:06:01;5.97;;;1.60;;
73597;SDS011;61874;48.146;11.594;2022-08-11T15:08:30;4.25;;;1.60;;
73597;SDS011;61874;48.146;11.594;2022-08-11T15:11:18;3.40;;;1.40;;
73597;SDS011;61874;48.146;11.594;2022-08-11T15:14:05;4.30;;;1.52;;
73597;SDS011;61874;48.146;11.594;2022-08-11T15:16:32;4.15;;;1.50;;
73597;SDS011;61874;48.146;11.594;2022-08-11T15:19:17;4.70;;;1.42;;
73597;SDS011;61874;48.146;11.594;2022-08-11T15:24:29;3.08;;;1.52;;
73597;SDS011;61874;48.146;11.594;2022-08-11T15:26:55;4.45;;;1.58;;
73597;SDS011;61874;48.146;11.594;2022-08-11T15:29:41;4.72;;;1.55;;
73597;SDS011;61874;48.146;11.594;2022-08-11T15:32:26;3.75;;;1.50;;
73597;SDS011;61874;48.146;11.594;2022-08-11T15:35:11;3.22;;;1.40;;
73597;SDS011;61874;48.146;11.594;2022-08-11T15:37:59;6.10;;;1.58;;
73597;SDS011;61874;48.146;11.594;2022-08-11T15:40:28;5.10;;;1.60;;
73597;SDS011;61874;48.146;11.594;2022-08-11T15:46:34;4.38;;;1.40;;
73597;SDS011;61874;48.146;11.594;2022-08-11T15:49:14;2.90;;;1.38;;
73597;SDS011;61874;48.146;11.594;2022-08-11T15:51:51;2.72;;;1.25;;
73597;SDS011;61874;48.146;11.594;2022-08-11T15:54:25;3.92;;;1.40;;
73597;SDS011;61874;48.146;11.594;2022-08-11T15:56:55;5.38;;;1.50;;
73597;SDS011;61874;48.146;11.594;2022-08-11T15:59:24;4.20;;;1.27;;
73597;SDS011;61874;48.146;11.594;2022-08-11T16:02:12;3.60;;;1.40;;
73597;SDS011;61874;48.146;11.594;2022-08-11T16:04:40;5.40;;;1.50;;
73597;SDS011;61874;48.146;11.594;2022-08-11T16:07:07;5.03;;;1.40;;
73597;SDS011;61874;48.146;11.594;2022-08-11T16:09:54;4.05;;;1.60;;
73597;SDS011;61874;48.146;11.594;2022-08-11T16:12:24;4.45;;;1.55;;
73597;SDS011;61874;48.146;11.594;2022-08-11T16:15:04;3.47;;;1.58;;
73597;SDS011;61874;48.146;11.594;2022-08-11T16:18:00;3.60;;;1.48;;
73597;SDS011;61874;48.146;11.594;2022-08-11T16:20:30;3.72;;;1.30;;
73597;SDS011;61874;48.146;11.594;2022-08-11T16:23:03;4.20;;;1.38;;
73597;SDS011;61874;48.146;11.594;2022-08-11T16:25:32;2.72;;;1.20;;
73597;SDS011;61874;48.146;11.594;2022-08-11T16:28:03;4.22;;;1.30;;
73597;SDS011;61874;48.146;11.594;2022-08-11T16:30:34;2.70;;;1.40;;
73597;SDS011;61874;48.146;11.594;2022-08-11T16:33:03;6.65;;;1.45;;
73597;SDS011;61874;48.146;11.594;2022-08-11T16:35:31;2.90;;;1.38;;
73597;SDS011;61874;48.146;11.594;2022-08-11T16:38:18;2.92;;;1.25;;
73597;SDS011;61874;48.146;11.594;2022-08-11T16:41:07;4.50;;;1.77;;
73597;SDS011;61874;48.146;11.594;2022-08-11T16:43:45;2.88;;;1.33;;
73597;SDS011;61874;48.146;11.594;2022-08-11T16:46:30;3.65;;;1.23;;
73597;SDS011;61874;48.146;11.594;2022-08-11T16:49:16;3.67;;;1.48;;
73597;SDS011;61874;48.146;11.594;2022-08-11T16:51:45;2.63;;;1.30;;
73597;SDS011;61874;48.146;11.594;2022-08-11T16:54:11;3.20;;;1.23;;
73597;SDS011;61874;48.146;11.594;2022-08-11T16:56:40;4.32;;;1.42;;
73597;SDS011;61874;48.146;11.594;2022-08-11T17:04:26;5.80;;;1.75;;
73597;SDS011;61874;48.146;11.594;2022-08-11T17:07:15;3.05;;;1.50;;
73597;SDS011;61874;48.146;11.594;2022-08-11T17:10:03;2.60;;;1.30;;
73597;SDS011;61874;48.146;11.594;2022-08-11T17:12:49;3.30;;;1.60;;
73597;SDS011;61874;48.146;11.594;2022-08-11T17:15:37;2.33;;;1.35;;
73597;SDS011;61874;48.146;11.594;2022-08-11T17:18:29;5.72;;;1.83;;
73597;SDS011;61874;48.146;11.594;2022-08-11T17:21:23;6.68;;;1.67;;
73597;SDS011;61874;48.146;11.594;2022-08-11T17:24:02;20.35;;;2.33;;
73597;SDS011;61874;48.146;11.594;2022-08-11T17:26:32;2.90;;;1.30;;
73597;SDS011;61874;48.146;11.594;2022-08-11T17:29:26;3.35;;;1.55;;
73597;SDS011;61874;48.146;11.594;2022-08-11T17:31:54;2.88;;;1.38;;
73597;SDS011;61874;48.146;11.594;2022-08-11T17:34:41;4.03;;;1.50;;
73597;SDS011;61874;48.146;11.594;2022-08-11T17:37:27;3.65;;;1.33;;
73597;SDS011;61874;48.146;11.594;2022-08-11T17:39:57;3.15;;;1.40;;
73597;SDS011;61874;48.146;11.594;2022-08-11T17:42:26;5.47;;;1.30;;
73597;SDS011;61874;48.146;11.594;2022-08-11T17:45:11;3.78;;;1.30;;
73597;SDS011;61874;48.146;11.594;2022-08-11T17:50:42;14.32;;;1.52;;
73597;SDS011;61874;48.146;11.594;2022-08-11T17:53:08;4.90;;;1.23;;
73597;SDS011;61874;48.146;11.594;2022-08-11T17:55:54;3.03;;;1.10;;
73597;SDS011;61874;48.146;11.594;2022-08-11T17:58:58;3.15;;;1.30;;
73597;SDS011;61874;48.146;11.594;2022-08-11T18:01:44;2.65;;;1.10;;
73597;SDS011;61874;48.146;11.594;2022-08-11T18:04:12;2.33;;;1.42;;
73597;SDS011;61874;48.146;11.594;2022-08-11T18:06:39;3.00;;;1.13;;
73597;SDS011;61874;48.146;11.594;2022-08-11T18:09:08;4.60;;;1.33;;
73597;SDS011;61874;48.146;11.594;2022-08-11T18:11:55;3.17;;;1.10;;
73597;SDS011;61874;48.146;11.594;2022-08-11T18:14:43;3.67;;;1.27;;
73597;SDS011;61874;48.146;11.594;2022-08-11T18:17:29;3.55;;;1.30;;
73597;SDS011;61874;48.146;11.594;2022-08-11T18:20:14;4.30;;;1.40;;
73597;SDS011;61874;48.146;11.594;2022-08-11T18:22:58;9.60;;;1.55;;
73597;SDS011;61874;48.146;11.594;2022-08-11T18:25:46;4.15;;;1.30;;
73597;SDS011;61874;48.146;11.594;2022-08-11T18:28:38;3.83;;;1.40;;
73597;SDS011;61874;48.146;11.594;2022-08-11T18:31:27;7.82;;;1.40;;
73597;SDS011;61874;48.146;11.594;2022-08-11T18:34:15;13.23;;;2.05;;
73597;SDS011;61874;48.146;11.594;2022-08-11T18:37:08;5.85;;;1.65;;
73597;SDS011;61874;48.146;11.594;2022-08-11T18:39:57;5.28;;;1.98;;
73597;SDS011;61874;48.146;11.594;2022-08-11T18:42:45;3.13;;;1.27;;
73597;SDS011;61874;48.146;11.594;2022-08-11T18:45:31;3.92;;;1.35;;
73597;SDS011;61874;48.146;11.594;2022-08-11T18:48:21;5.45;;;1.50;;
73597;SDS011;61874;48.146;11.594;2022-08-11T18:51:05;4.18;;;1.38;;
73597;SDS011;61874;48.146;11.594;2022-08-11T18:53:53;4.60;;;1.45;;
73597;SDS011;61874;48.146;11.594;2022-08-11T18:56:40;3.75;;;1.67;;
73597;SDS011;61874;48.146;11.594;2022-08-11T18:59:28;5.07;;;1.40;;
73597;SDS011;61874;48.146;11.594;2022-08-11T19:02:18;9.30;;;1.50;;
73597;SDS011;61874;48.146;11.594;2022-08-11T19:05:05;4.22;;;1.30;;
73597;SDS011;61874;48.146;11.594;2022-08-11T19:07:51;2.72;;;1.27;;
73597;SDS011;61874;48.146;11.594;2022-08-11T19:10:38;4.53;;;1.40;;
73597;SDS011;61874;48.146;11.594;2022-08-11T19:13:24;5.18;;;1.40;;
73597;SDS011;61874;48.146;11.594;2022-08-11T19:16:09;3.47;;;1.40;;
73597;SDS011;61874;48.146;11.594;2022-08-11T19:18:54;4.78;;;1.30;;
73597;SDS011;61874;48.146;11.594;2022-08-11T19:21:39;4.13;;;1.42;;
73597;SDS011;61874;48.146;11.594;2022-08-11T19:24:24;7.47;;;1.58;;
73597;SDS011;61874;48.146;11.594;2022-08-11T19:27:10;13.60;;;2.53;;
73597;SDS011;61874;48.146;11.594;2022-08-11T19:29:55;5.82;;;1.40;;
73597;SDS011;61874;48.146;11.594;2022-08-11T19:32:41;7.90;;;1.50;;
73597;SDS011;61874;48.146;11.594;2022-08-11T19:35:25;9.98;;;1.73;;
73597;SDS011;61874;48.146;11.594;2022-08-11T19:38:10;5.50;;;1.23;;
73597;SDS011;61874;48.146;11.594;2022-08-11T19:40:55;7.03;;;2.30;;